createdAt,value
2019-05-25T03:49:48.966Z,11.20
2019-05-25T03:52:21.500Z,10.90
2019-05-25T03:54:53.730Z,10.98
2019-05-25T03:57:26.465Z,10.93
2019-05-25T03:59:59.069Z,10.20
2019-05-25T04:02:31.370Z,9.80
2019-05-25T04:05:03.909Z,11.12
2019-05-25T04:07:36.378Z,11.68
2019-05-25T04:10:09.119Z,11.78
2019-05-25T04:12:41.820Z,11.95
2019-05-25T04:15:14.367Z,11.15
2019-05-25T04:17:46.609Z,11.12
2019-05-25T04:20:19.219Z,11.15
2019-05-25T04:22:51.552Z,10.78
2019-05-25T04:25:24.172Z,11.05
2019-05-25T04:27:56.591Z,10.48
2019-05-25T04:30:29.161Z,10.30
2019-05-25T04:33:01.453Z,10.85
2019-05-25T04:35:34.359Z,11.50
2019-05-25T04:38:07.086Z,10.50
2019-05-25T04:40:39.685Z,10.25
2019-05-25T04:43:11.982Z,11.18
2019-05-25T04:45:44.382Z,11.90
2019-05-25T04:48:16.832Z,11.93
2019-05-25T04:50:49.134Z,12.00
2019-05-25T04:53:21.443Z,10.95
2019-05-25T04:55:53.678Z,10.82
2019-05-25T04:58:26.205Z,11.43
2019-05-25T05:00:59.127Z,11.18
2019-05-25T05:03:32.501Z,10.98
2019-05-25T05:06:05.405Z,11.43
2019-05-25T05:08:38.395Z,11.43
2019-05-25T05:11:10.893Z,11.45
2019-05-25T05:13:43.206Z,10.60
2019-05-25T05:16:15.808Z,10.93
2019-05-25T05:18:48.282Z,11.15
2019-05-25T05:21:20.914Z,10.90
2019-05-25T05:23:53.574Z,10.75
2019-05-25T05:26:25.891Z,10.63
2019-05-25T05:28:57.983Z,10.38
2019-05-25T05:31:30.456Z,11.10
2019-05-25T05:34:02.745Z,10.15
2019-05-25T05:36:36.497Z,10.18
2019-05-25T05:39:10.487Z,11.68
2019-05-25T05:41:43.137Z,10.30
2019-05-25T05:44:17.790Z,12.00
2019-05-25T05:46:51.487Z,10.70
2019-05-25T05:49:24.847Z,12.07
2019-05-25T05:51:59.053Z,11.22
2019-05-25T05:54:33.121Z,11.40
2019-05-25T05:57:12.290Z,10.68
2019-05-25T05:59:39.270Z,11.63
2019-05-25T06:02:11.607Z,11.48
2019-05-25T06:04:43.833Z,10.80
2019-05-25T06:07:16.252Z,10.85
2019-05-25T06:09:48.537Z,11.10
2019-05-25T06:12:21.264Z,10.25
2019-05-25T06:14:53.735Z,11.55
2019-05-25T06:17:26.250Z,10.03
2019-05-25T06:19:58.998Z,10.65
2019-05-25T06:22:31.419Z,10.82
2019-05-25T06:25:04.223Z,11.40
2019-05-25T06:27:37.103Z,11.57
2019-05-25T06:30:11.254Z,11.38
2019-05-25T06:32:43.609Z,11.63
2019-05-25T06:35:16.626Z,11.80
2019-05-25T06:37:48.984Z,12.28
2019-05-25T06:40:22.107Z,11.55
2019-05-25T06:42:54.315Z,12.18
2019-05-25T06:45:27.036Z,10.93
2019-05-25T06:47:59.461Z,11.53
2019-05-25T06:50:31.927Z,10.82
2019-05-25T06:53:04.459Z,10.35
2019-05-25T06:55:36.871Z,11.30
2019-05-25T06:58:09.288Z,10.88
2019-05-25T07:00:42.791Z,11.05
2019-05-25T07:03:15.175Z,10.93
2019-05-25T07:05:47.416Z,10.60
2019-05-25T07:08:20.099Z,10.10
2019-05-25T07:10:52.855Z,11.00
2019-05-25T07:13:28.586Z,10.08
2019-05-25T07:16:00.680Z,10.35
2019-05-25T07:18:35.405Z,10.68
2019-05-25T07:21:07.033Z,10.18
2019-05-25T07:23:39.387Z,10.75
2019-05-25T07:26:11.862Z,10.70
2019-05-25T07:28:44.437Z,10.48
2019-05-25T07:31:16.952Z,10.13
2019-05-25T07:33:49.383Z,10.63
2019-05-25T07:36:21.745Z,9.55
2019-05-25T07:38:54.316Z,9.95
2019-05-25T07:41:26.716Z,10.28
2019-05-25T07:43:59.241Z,9.15
2019-05-25T07:46:31.629Z,8.85
2019-05-25T07:49:03.919Z,8.33
2019-05-25T07:51:36.410Z,9.60
2019-05-25T07:54:09.959Z,9.90
2019-05-25T07:56:42.498Z,10.15
2019-05-25T07:59:15.296Z,9.75
2019-05-25T08:01:47.954Z,10.30
2019-05-25T08:04:20.214Z,9.20
2019-05-25T08:06:52.342Z,9.63
2019-05-25T08:09:25.003Z,10.30
2019-05-25T08:11:58.065Z,9.78
2019-05-25T08:14:30.884Z,9.55
2019-05-25T08:17:03.454Z,9.38
2019-05-25T08:19:35.854Z,9.23
2019-05-25T08:22:08.680Z,9.33
2019-05-25T08:24:41.033Z,9.68
2019-05-25T08:27:13.372Z,9.00
2019-05-25T08:29:45.732Z,9.60
2019-05-25T08:32:18.362Z,9.28
2019-05-25T08:34:50.666Z,9.10
2019-05-25T08:37:22.993Z,9.20
2019-05-25T08:39:55.238Z,10.10
2019-05-25T08:42:27.544Z,9.63
2019-05-25T08:45:00.117Z,8.88
2019-05-25T08:47:32.704Z,9.23
2019-05-25T08:50:06.259Z,8.75
2019-05-25T08:52:39.331Z,9.45
2019-05-25T08:55:12.219Z,8.80
2019-05-25T08:57:44.341Z,9.25
2019-05-25T09:00:16.975Z,8.33
2019-05-25T09:02:49.477Z,8.98
2019-05-25T09:05:21.858Z,8.83
2019-05-25T09:07:54.166Z,8.90
2019-05-25T09:10:26.593Z,8.55
2019-05-25T09:12:58.994Z,8.45
2019-05-25T09:15:31.545Z,9.18
2019-05-25T09:18:04.813Z,9.30
2019-05-25T09:20:37.219Z,8.78
2019-05-25T09:23:09.682Z,8.40
2019-05-25T09:25:42.956Z,8.73
2019-05-25T09:28:15.078Z,8.93
2019-05-25T09:30:47.277Z,9.48
2019-05-25T09:33:19.587Z,10.20
2019-05-25T09:35:52.470Z,10.28
2019-05-25T09:38:25.258Z,9.13
2019-05-25T09:40:57.746Z,8.93
2019-05-25T09:43:30.149Z,8.88
2019-05-25T09:46:03.387Z,9.20
2019-05-25T09:48:38.073Z,10.10
2019-05-25T09:51:15.371Z,9.88
2019-05-25T09:53:43.049Z,10.08
2019-05-25T09:56:15.667Z,10.60
2019-05-25T09:58:47.854Z,10.45
2019-05-25T10:01:20.158Z,10.63
2019-05-25T10:03:52.442Z,10.93
2019-05-25T10:06:24.568Z,10.25
2019-05-25T10:08:56.965Z,9.90
2019-05-25T10:11:29.617Z,10.38
2019-05-25T10:14:01.933Z,11.75
2019-05-25T10:16:34.664Z,10.72
2019-05-25T10:19:07.531Z,11.85
2019-05-25T10:21:40.816Z,11.68
2019-05-25T10:24:14.121Z,11.03
2019-05-25T10:26:46.527Z,11.63
2019-05-25T10:29:34.012Z,12.13
2019-05-25T10:31:52.930Z,12.25
2019-05-25T10:34:25.242Z,12.40
2019-05-25T10:36:57.773Z,11.50
2019-05-25T10:39:30.647Z,12.20
2019-05-25T10:42:02.841Z,11.88
2019-05-25T10:44:35.417Z,12.07
2019-05-25T10:47:10.335Z,11.57
2019-05-25T10:49:42.644Z,12.15
2019-05-25T10:52:15.200Z,11.63
2019-05-25T10:54:47.306Z,12.07
2019-05-25T10:57:19.748Z,12.07
2019-05-25T10:59:53.206Z,11.70
2019-05-25T11:02:25.796Z,13.65
2019-05-25T11:04:58.316Z,14.53
2019-05-25T11:07:30.952Z,17.12
2019-05-25T11:10:03.428Z,20.20
2019-05-25T11:12:36.030Z,17.20
2019-05-25T11:15:10.178Z,16.32
2019-05-25T11:17:42.436Z,18.05
2019-05-25T11:20:15.799Z,18.92
2019-05-25T11:22:48.518Z,18.37
2019-05-25T11:25:21.022Z,18.50
2019-05-25T11:27:53.413Z,18.37
2019-05-25T11:30:25.839Z,19.20
2019-05-25T11:32:58.161Z,19.52
2019-05-25T11:35:30.547Z,19.55
2019-05-25T11:38:03.069Z,20.08
2019-05-25T11:40:35.370Z,19.40
2019-05-25T11:43:07.893Z,19.50
2019-05-25T11:45:40.177Z,19.37
2019-05-25T11:48:12.681Z,19.77
2019-05-25T11:50:44.867Z,20.08
2019-05-25T11:53:18.545Z,20.27
2019-05-25T11:55:50.638Z,21.23
2019-05-25T11:58:23.260Z,20.88
2019-05-25T12:00:55.680Z,24.00
2019-05-25T12:03:28.130Z,27.00
2019-05-25T12:06:00.316Z,26.68
2019-05-25T12:08:32.765Z,26.60
2019-05-25T12:11:05.218Z,26.25
2019-05-25T12:13:37.509Z,26.68
2019-05-25T12:16:10.304Z,23.85
2019-05-25T12:18:42.601Z,22.30
2019-05-25T12:21:15.343Z,20.32
2019-05-25T12:23:47.778Z,22.62
2019-05-25T12:26:20.337Z,22.15
2019-05-25T12:28:52.670Z,20.75
2019-05-25T12:31:25.062Z,21.00
2019-05-25T12:33:58.711Z,20.57
2019-05-25T12:36:31.432Z,21.68
2019-05-25T12:39:03.905Z,20.23
2019-05-25T12:41:36.583Z,25.57
2019-05-25T12:44:08.709Z,23.98
2019-05-25T12:46:41.240Z,24.35
2019-05-25T12:49:13.902Z,24.75
2019-05-25T12:51:46.121Z,27.65
2019-05-25T12:54:18.510Z,25.62
2019-05-25T12:56:51.157Z,25.55
2019-05-25T12:59:24.391Z,24.85
2019-05-25T13:01:56.695Z,25.20
2019-05-25T13:04:29.132Z,25.02
2019-05-25T13:07:01.666Z,23.42
2019-05-25T13:09:33.980Z,22.52
2019-05-25T13:12:06.917Z,22.67
2019-05-25T13:14:39.280Z,21.50
2019-05-25T13:17:12.066Z,23.42
2019-05-25T13:19:44.522Z,22.05
2019-05-25T13:22:18.487Z,21.97
2019-05-25T13:24:50.779Z,22.22
2019-05-25T13:27:24.484Z,24.30
2019-05-25T13:29:57.085Z,22.95
2019-05-25T13:32:29.739Z,22.82
2019-05-25T13:35:02.186Z,21.90
2019-05-25T13:37:35.132Z,22.70
2019-05-25T13:40:08.788Z,22.60
2019-05-25T13:42:48.338Z,21.10
2019-05-25T13:45:21.041Z,21.00
2019-05-25T13:47:53.331Z,22.02
2019-05-25T13:50:25.759Z,21.23
2019-05-25T13:52:58.986Z,22.13
2019-05-25T13:55:31.311Z,21.20
2019-05-25T13:58:03.602Z,20.00
2019-05-25T14:00:36.162Z,17.60
2019-05-25T14:03:08.613Z,17.70
2019-05-25T14:05:41.360Z,16.95
2019-05-25T14:08:14.303Z,16.05
2019-05-25T14:10:46.507Z,16.35
2019-05-25T14:13:18.800Z,16.77
2019-05-25T14:16:04.271Z,15.95
2019-05-25T14:18:24.680Z,16.60
2019-05-25T14:20:57.922Z,16.05
2019-05-25T14:23:30.532Z,16.32
2019-05-25T14:26:02.786Z,17.00
2019-05-25T14:28:35.329Z,15.43
2019-05-25T14:31:07.843Z,14.78
2019-05-25T14:33:40.677Z,14.50
2019-05-25T14:36:12.971Z,14.65
2019-05-25T14:38:45.390Z,14.63
2019-05-25T14:41:17.910Z,13.13
2019-05-25T14:43:50.531Z,14.00
2019-05-25T14:46:28.017Z,14.40
2019-05-25T14:48:56.369Z,13.93
2019-05-25T14:51:28.695Z,14.75
2019-05-25T14:54:01.276Z,13.48
2019-05-25T14:56:33.749Z,13.62
2019-05-25T14:59:06.462Z,13.60
2019-05-25T15:01:38.791Z,14.25
2019-05-25T15:04:12.408Z,14.07
2019-05-25T15:06:44.780Z,14.00
2019-05-25T15:09:17.418Z,13.65
2019-05-25T15:11:53.558Z,14.45
2019-05-25T15:14:23.641Z,14.25
2019-05-25T15:16:56.193Z,14.28
2019-05-25T15:19:28.521Z,14.40
2019-05-25T15:22:01.290Z,13.25
2019-05-25T15:24:35.072Z,14.23
2019-05-25T15:27:08.052Z,13.20
2019-05-25T15:29:40.294Z,14.30
2019-05-25T15:32:19.988Z,13.45
2019-05-25T15:34:46.647Z,13.62
2019-05-25T15:37:19.386Z,13.68
2019-05-25T15:39:51.655Z,15.50
2019-05-25T15:42:24.699Z,17.73
2019-05-25T15:44:57.073Z,16.52
2019-05-25T15:47:29.586Z,14.07
2019-05-25T15:50:02.013Z,14.20
2019-05-25T15:52:34.463Z,14.33
2019-05-25T15:55:09.220Z,14.18
2019-05-25T15:57:41.805Z,14.93
2019-05-25T16:00:15.833Z,14.65
2019-05-25T16:02:48.245Z,14.93
2019-05-25T16:05:20.641Z,15.78
2019-05-25T16:07:55.247Z,15.80
2019-05-25T16:10:27.818Z,15.25
2019-05-25T16:13:00.042Z,15.53
2019-05-25T16:15:32.751Z,16.40
2019-05-25T16:18:05.182Z,16.73
2019-05-25T16:20:37.674Z,17.02
2019-05-25T16:23:10.316Z,16.65
2019-05-25T16:25:43.256Z,18.00
2019-05-25T16:28:16.417Z,18.17
2019-05-25T16:30:48.617Z,19.25
2019-05-25T16:33:22.021Z,19.42
2019-05-25T16:35:57.945Z,19.75
2019-05-25T16:38:28.773Z,19.95
2019-05-25T16:41:01.657Z,20.68
2019-05-25T16:43:34.271Z,19.32
2019-05-25T16:46:06.811Z,19.40
2019-05-25T16:48:40.056Z,19.48
2019-05-25T16:51:12.758Z,18.92
2019-05-25T16:53:45.421Z,19.23
2019-05-25T16:56:18.116Z,18.82
2019-05-25T16:58:50.655Z,18.82
2019-05-25T17:01:23.215Z,19.40
2019-05-25T17:03:55.716Z,17.07
2019-05-25T17:06:28.389Z,18.37
2019-05-25T17:09:00.922Z,17.90
2019-05-25T17:11:34.413Z,18.05
2019-05-25T17:14:06.966Z,18.55
2019-05-25T17:16:40.207Z,18.23
2019-05-25T17:19:12.739Z,19.20
2019-05-25T17:21:44.878Z,18.30
2019-05-25T17:24:17.197Z,19.70
2019-05-25T17:26:49.455Z,18.48
2019-05-25T17:29:21.787Z,18.42
2019-05-25T17:31:54.381Z,18.85
2019-05-25T17:34:27.013Z,17.23
2019-05-25T17:36:59.229Z,18.82
2019-05-25T17:39:32.278Z,18.25
2019-05-25T17:42:04.702Z,17.37
2019-05-25T17:44:37.498Z,19.40
2019-05-25T17:47:10.017Z,18.45
2019-05-25T17:49:42.653Z,17.73
2019-05-25T17:52:15.081Z,16.77
2019-05-25T17:54:47.297Z,16.97
2019-05-25T17:57:19.598Z,17.32
2019-05-25T17:59:52.025Z,16.85
2019-05-25T18:02:24.389Z,16.17
2019-05-25T18:04:57.944Z,16.77
2019-05-25T18:07:30.418Z,17.32
2019-05-25T18:10:02.929Z,16.50
2019-05-25T18:12:35.489Z,15.70
2019-05-25T18:15:10.047Z,16.05
2019-05-25T18:17:42.416Z,17.10
2019-05-25T18:20:15.864Z,17.27
2019-05-25T18:22:48.148Z,16.70
2019-05-25T18:25:20.946Z,16.17
2019-05-25T18:27:53.129Z,16.57
2019-05-25T18:30:27.458Z,16.32
2019-05-25T18:33:00.141Z,16.27
2019-05-25T18:35:32.556Z,15.93
2019-05-25T18:38:05.086Z,16.30
2019-05-25T18:40:37.317Z,16.48
2019-05-25T18:43:09.526Z,16.82
2019-05-25T18:45:41.679Z,16.93
2019-05-25T18:48:13.881Z,16.25
2019-05-25T18:50:46.629Z,16.50
2019-05-25T18:53:18.907Z,15.75
2019-05-25T18:55:51.646Z,17.02
2019-05-25T18:58:24.044Z,16.55
2019-05-25T19:00:56.486Z,17.32
2019-05-25T19:03:28.898Z,17.27
2019-05-25T19:06:01.481Z,17.12
2019-05-25T19:08:33.873Z,17.77
2019-05-25T19:11:06.500Z,16.90
2019-05-25T19:13:38.688Z,16.57
2019-05-25T19:16:11.127Z,16.40
2019-05-25T19:18:43.336Z,17.27
2019-05-25T19:21:16.039Z,18.62
2019-05-25T19:23:48.116Z,17.60
2019-05-25T19:26:20.517Z,18.85
2019-05-25T19:28:52.898Z,19.87
2019-05-25T19:31:25.396Z,19.15
2019-05-25T19:33:57.626Z,20.25
2019-05-25T19:36:30.160Z,20.25
2019-05-25T19:39:02.358Z,19.02
2019-05-25T19:41:35.108Z,19.77
2019-05-25T19:44:07.609Z,19.20
2019-05-25T19:46:40.250Z,19.48
2019-05-25T19:49:12.441Z,19.80
2019-05-25T19:51:44.601Z,18.92
2019-05-25T19:54:16.689Z,20.45
2019-05-25T19:56:49.345Z,19.37
2019-05-25T19:59:21.647Z,19.85
2019-05-25T20:01:54.089Z,19.42
2019-05-25T20:04:26.313Z,19.42
2019-05-25T20:06:58.955Z,19.07
2019-05-25T20:09:31.576Z,17.70
2019-05-25T20:12:04.287Z,19.02
2019-05-25T20:14:37.230Z,18.85
2019-05-25T20:17:09.551Z,18.32
2019-05-25T20:19:41.649Z,18.05
2019-05-25T20:22:14.990Z,19.15
2019-05-25T20:24:47.179Z,17.25
2019-05-25T20:27:19.597Z,18.77
2019-05-25T20:29:51.925Z,18.82
2019-05-25T20:32:24.408Z,18.95
2019-05-25T20:34:56.713Z,19.20
2019-05-25T20:37:29.844Z,20.02
2019-05-25T20:40:03.394Z,19.98
2019-05-25T20:42:35.811Z,19.98
2019-05-25T20:45:09.770Z,21.25
2019-05-25T20:47:42.008Z,20.52
2019-05-25T20:50:14.971Z,19.52
2019-05-25T20:52:47.282Z,18.85
2019-05-25T20:55:19.696Z,18.95
2019-05-25T20:57:52.225Z,19.95
2019-05-25T21:00:25.529Z,19.73
2019-05-25T21:03:06.229Z,19.17
2019-05-25T21:05:46.978Z,19.70
2019-05-25T21:08:06.046Z,19.40
2019-05-25T21:10:38.560Z,19.77
2019-05-25T21:13:10.904Z,19.82
2019-05-25T21:15:43.355Z,20.00
2019-05-25T21:18:16.867Z,20.23
2019-05-25T21:20:49.300Z,19.27
2019-05-25T21:23:21.944Z,19.67
2019-05-25T21:25:54.358Z,20.15
2019-05-25T21:28:26.711Z,19.85
2019-05-25T21:30:58.931Z,21.12
2019-05-25T21:33:31.242Z,21.12
2019-05-25T21:36:08.719Z,22.75
2019-05-25T21:38:37.110Z,21.23
2019-05-25T21:41:09.426Z,20.52
2019-05-25T21:43:41.671Z,20.60
2019-05-25T21:46:13.890Z,19.87
2019-05-25T21:48:46.325Z,19.57
2019-05-25T21:51:18.626Z,19.75
2019-05-25T21:53:50.817Z,21.35
2019-05-25T21:56:23.415Z,19.80
2019-05-25T21:58:56.454Z,20.90
2019-05-25T22:01:29.186Z,21.30
2019-05-25T22:04:02.087Z,20.52
2019-05-25T22:06:34.976Z,21.35
2019-05-25T22:09:09.276Z,21.02
2019-05-25T22:11:41.496Z,19.98
2019-05-25T22:14:13.951Z,21.00
2019-05-25T22:16:46.455Z,20.70
2019-05-25T22:19:19.176Z,21.97
2019-05-25T22:21:51.516Z,21.55
2019-05-25T22:24:23.823Z,20.77
2019-05-25T22:26:56.227Z,21.73
2019-05-25T22:29:28.828Z,21.30
2019-05-25T22:32:01.091Z,21.73
2019-05-25T22:34:33.617Z,22.62
2019-05-25T22:37:06.151Z,21.65
2019-05-25T22:39:38.284Z,22.55
2019-05-25T22:42:10.685Z,23.95
2019-05-25T22:44:43.459Z,23.47
2019-05-25T22:47:16.169Z,24.20
2019-05-25T22:49:48.609Z,24.23
2019-05-25T22:52:21.247Z,25.45
2019-05-25T22:54:53.431Z,24.15
2019-05-25T22:57:26.322Z,24.43
2019-05-25T22:59:58.752Z,24.20
2019-05-25T23:02:31.041Z,23.98
2019-05-25T23:05:06.983Z,24.57
2019-05-25T23:07:37.580Z,25.68
2019-05-25T23:10:11.708Z,25.77
2019-05-25T23:12:45.119Z,25.10
2019-05-25T23:15:17.981Z,24.55
2019-05-25T23:17:50.074Z,26.55
2019-05-25T23:20:22.688Z,25.02
2019-05-25T23:22:55.890Z,26.30
2019-05-25T23:25:28.207Z,26.80
2019-05-25T23:28:00.411Z,24.20
2019-05-25T23:30:33.831Z,25.20
2019-05-25T23:33:06.024Z,25.25
2019-05-25T23:35:38.573Z,32.00
2019-05-25T23:38:11.284Z,29.18
2019-05-25T23:40:43.811Z,25.97
2019-05-25T23:43:16.058Z,24.85
2019-05-25T23:45:48.477Z,21.30
2019-05-25T23:48:20.803Z,22.80
2019-05-25T23:50:53.223Z,22.98
2019-05-25T23:53:25.803Z,23.15
2019-05-25T23:55:58.380Z,24.57
2019-05-25T23:58:30.767Z,23.07
